createdAt,value
2023-03-19T00:00:37.870Z,100570.04
2023-03-19T00:03:31.284Z,100574.06
2023-03-19T00:06:03.991Z,100573.15
2023-03-19T00:08:36.752Z,100571.29
2023-03-19T00:11:14.330Z,100573.81
2023-03-19T00:13:47.782Z,100575.86
2023-03-19T00:16:21.167Z,100580.08
2023-03-19T00:18:53.757Z,100578.21
2023-03-19T00:21:26.658Z,100585.73
2023-03-19T00:24:02.399Z,100587.13
2023-03-19T00:26:36.032Z,100586.42
2023-03-19T00:29:09.135Z,100587.70
2023-03-19T00:31:42.835Z,100589.92
2023-03-19T00:34:18.407Z,100589.06
2023-03-19T00:36:51.323Z,100590.61
2023-03-19T00:39:24.338Z,100589.13
2023-03-19T00:41:56.969Z,100586.26
2023-03-19T00:56:04.482Z,100585.02
2023-03-19T00:58:38.813Z,100584.98
2023-03-19T01:01:13.088Z,100582.38
2023-03-19T01:03:47.541Z,100580.61
2023-03-19T01:06:21.914Z,100585.59
2023-03-19T01:08:54.404Z,100579.65
2023-03-19T01:11:27.244Z,100578.80
2023-03-19T01:14:00.742Z,100579.77
2023-03-19T01:16:34.452Z,100580.83
2023-03-19T01:19:07.046Z,100579.45
2023-03-19T01:21:40.045Z,100575.91
2023-03-19T01:24:12.878Z,100574.00
2023-03-19T01:26:46.545Z,100567.64
2023-03-19T01:29:25.781Z,100557.59
2023-03-19T01:32:00.103Z,100545.79
2023-03-19T01:34:50.596Z,100561.67
2023-03-19T01:37:23.151Z,100562.95
2023-03-19T01:39:56.216Z,100558.36
2023-03-19T01:42:29.058Z,100552.02
2023-03-19T01:45:39.683Z,100551.27
2023-03-19T01:48:39.453Z,100549.66
2023-03-19T01:51:20.402Z,100550.89
2023-03-19T01:53:55.624Z,100553.21
2023-03-19T01:57:12.791Z,100556.32
2023-03-19T02:00:22.423Z,100554.71
2023-03-19T02:03:00.764Z,100555.84
2023-03-19T02:05:48.933Z,100541.00
2023-03-19T02:08:24.655Z,100556.84
2023-03-19T02:11:02.958Z,100560.46
2023-03-19T02:13:38.175Z,100541.23
2023-03-19T02:16:14.079Z,100566.89
2023-03-19T02:18:49.208Z,100554.15
2023-03-19T02:21:25.176Z,100566.19
2023-03-19T02:24:04.766Z,100564.39
2023-03-19T02:27:10.512Z,100566.66
2023-03-19T02:29:49.345Z,100570.38
2023-03-19T02:32:22.444Z,100569.82
2023-03-19T02:34:55.157Z,100568.35
2023-03-19T02:37:33.632Z,100571.52
2023-03-19T02:40:12.866Z,100565.59
2023-03-19T02:42:45.289Z,100570.99
2023-03-19T02:45:18.762Z,100573.20
2023-03-19T02:47:51.288Z,100576.42
2023-03-19T02:50:26.147Z,100576.84
2023-03-19T02:53:01.182Z,100587.75
2023-03-19T02:55:33.549Z,100589.21
2023-03-19T02:58:07.509Z,100595.21
2023-03-19T03:00:41.348Z,100596.99
2023-03-19T03:03:14.072Z,100597.50
2023-03-19T03:05:46.437Z,100604.10
2023-03-19T03:08:18.912Z,100602.34
2023-03-19T03:10:51.351Z,100595.86
2023-03-19T03:13:24.021Z,100591.69
2023-03-19T03:15:57.827Z,100594.23
2023-03-19T03:18:31.617Z,100599.79
2023-03-19T03:21:05.159Z,100599.23
2023-03-19T03:23:38.831Z,100587.63
2023-03-19T03:26:12.040Z,100606.65
2023-03-19T03:28:44.679Z,100611.09
2023-03-19T03:31:17.494Z,100595.47
2023-03-19T03:33:52.708Z,100609.81
2023-03-19T03:36:29.424Z,100606.70
2023-03-19T03:39:01.896Z,100611.16
2023-03-19T03:41:34.740Z,100606.56
2023-03-19T03:44:09.556Z,100614.16
2023-03-19T03:46:44.787Z,100614.53
2023-03-19T03:49:17.315Z,100611.48
2023-03-19T03:51:49.732Z,100607.41
2023-03-19T03:54:22.695Z,100609.72
2023-03-19T03:56:55.929Z,100605.36
2023-03-19T03:59:29.045Z,100602.64
2023-03-19T04:02:02.008Z,100601.13
2023-03-19T04:04:34.829Z,100599.14
2023-03-19T04:07:09.351Z,100597.61
2023-03-19T04:09:49.507Z,100595.61
2023-03-19T04:12:23.205Z,100592.03
2023-03-19T04:14:56.158Z,100598.23
2023-03-19T04:17:31.115Z,100603.95
2023-03-19T04:20:05.040Z,100610.10
2023-03-19T04:22:37.837Z,100595.09
2023-03-19T04:25:13.867Z,100602.70
2023-03-19T04:27:47.624Z,100593.45
2023-03-19T04:30:20.327Z,100594.38
2023-03-19T04:32:54.062Z,100602.64
2023-03-19T04:35:28.540Z,100604.69
2023-03-19T04:38:01.149Z,100603.37
2023-03-19T04:40:33.985Z,100601.52
2023-03-19T04:43:07.874Z,100608.58
2023-03-19T04:45:42.854Z,100605.33
2023-03-19T04:48:17.201Z,100608.79
2023-03-19T04:50:52.881Z,100610.28
2023-03-19T04:53:26.714Z,100614.42
2023-03-19T04:56:00.507Z,100614.25
2023-03-19T04:58:32.971Z,100612.69
2023-03-19T05:01:08.438Z,100592.05
2023-03-19T05:04:02.611Z,100600.80
2023-03-19T05:06:37.886Z,100598.77
2023-03-19T05:09:12.174Z,100598.89
2023-03-19T05:11:44.844Z,100601.20
2023-03-19T05:14:23.375Z,100596.48
2023-03-19T05:17:16.618Z,100596.14
2023-03-19T05:20:14.543Z,100598.33
2023-03-19T05:22:53.999Z,100599.27
2023-03-19T05:25:27.665Z,100603.36
2023-03-19T05:28:02.555Z,100599.02
2023-03-19T05:30:37.079Z,100600.15
2023-03-19T05:33:15.370Z,100600.56
2023-03-19T05:35:51.948Z,100606.91
2023-03-19T05:38:32.908Z,100601.49
2023-03-19T05:41:11.035Z,100608.44
2023-03-19T05:44:02.209Z,100614.73
2023-03-19T05:46:53.635Z,100621.27
2023-03-19T05:49:27.387Z,100624.59
2023-03-19T05:52:00.467Z,100621.91
2023-03-19T05:54:33.170Z,100623.60
2023-03-19T05:57:45.354Z,100625.05
2023-03-19T06:00:29.904Z,100625.25
2023-03-19T06:03:02.696Z,100627.34
2023-03-19T06:05:57.968Z,100634.15
2023-03-19T06:08:47.095Z,100636.95
2023-03-19T06:11:30.092Z,100645.52
2023-03-19T06:14:22.219Z,100654.30
2023-03-19T06:17:10.237Z,100650.20
2023-03-19T06:19:43.685Z,100645.71
2023-03-19T06:22:16.939Z,100647.61
2023-03-19T06:24:49.881Z,100646.04
2023-03-19T06:27:24.227Z,100651.08
2023-03-19T06:29:59.020Z,100657.16
2023-03-19T06:32:37.378Z,100658.23
2023-03-19T06:35:13.898Z,100658.79
2023-03-19T06:37:46.636Z,100659.58
2023-03-19T06:40:19.820Z,100657.46
2023-03-19T06:42:53.542Z,100656.45
2023-03-19T06:45:26.582Z,100657.83
2023-03-19T06:47:59.887Z,100659.55
2023-03-19T06:50:32.889Z,100660.23
2023-03-19T06:53:06.392Z,100660.81
2023-03-19T06:55:40.759Z,100666.05
2023-03-19T06:58:14.126Z,100671.12
2023-03-19T07:00:47.128Z,100670.28
2023-03-19T07:03:20.183Z,100673.08
2023-03-19T07:05:53.315Z,100675.74
2023-03-19T07:08:29.791Z,100676.86
2023-03-19T07:11:09.342Z,100675.71
2023-03-19T07:13:43.052Z,100680.31
2023-03-19T07:16:16.932Z,100676.86
2023-03-19T07:18:50.283Z,100679.20
2023-03-19T07:21:23.125Z,100682.89
2023-03-19T07:23:58.431Z,100683.56
2023-03-19T07:26:33.311Z,100680.72
2023-03-19T07:29:07.969Z,100686.91
2023-03-19T07:31:42.545Z,100685.77
2023-03-19T07:34:15.270Z,100681.41
2023-03-19T07:36:49.259Z,100678.86
2023-03-19T07:39:24.231Z,100679.48
2023-03-19T07:41:58.255Z,100677.41
2023-03-19T07:44:30.980Z,100676.88
2023-03-19T07:47:05.892Z,100684.15
2023-03-19T07:49:37.871Z,100682.75
2023-03-19T07:52:11.400Z,100681.33
2023-03-19T07:54:45.191Z,100673.58
2023-03-19T07:57:19.688Z,100674.64
2023-03-19T07:59:52.531Z,100669.75
2023-03-19T08:02:26.948Z,100660.13
2023-03-19T08:05:05.425Z,100660.01
2023-03-19T08:07:39.606Z,100656.03
2023-03-19T08:10:14.604Z,100659.67
2023-03-19T08:12:48.980Z,100645.41
2023-03-19T08:15:22.822Z,100662.07
2023-03-19T08:18:03.847Z,100661.16
2023-03-19T08:20:39.150Z,100648.61
2023-03-19T08:23:12.676Z,100663.63
2023-03-19T08:25:45.938Z,100659.30
2023-03-19T08:28:18.823Z,100665.08
2023-03-19T08:30:54.365Z,100661.45
2023-03-19T08:33:28.546Z,100657.02
2023-03-19T08:36:11.564Z,100662.33
2023-03-19T08:38:48.108Z,100664.48
2023-03-19T08:41:23.227Z,100668.84
2023-03-19T08:43:56.747Z,100670.94
2023-03-19T08:46:31.458Z,100671.21
2023-03-19T08:49:07.018Z,100673.39
2023-03-19T08:51:41.964Z,100676.66
2023-03-19T08:54:16.449Z,100675.27
2023-03-19T08:56:47.899Z,100674.27
2023-03-19T08:59:21.161Z,100682.91
2023-03-19T09:01:55.644Z,100679.51
2023-03-19T09:04:28.205Z,100684.08
2023-03-19T09:07:00.754Z,100687.50
2023-03-19T09:09:33.276Z,100681.15
2023-03-19T09:12:06.107Z,100678.42
2023-03-19T09:14:39.989Z,100676.53
2023-03-19T09:17:13.491Z,100680.84
2023-03-19T09:19:47.445Z,100671.48
2023-03-19T09:22:21.195Z,100679.64
2023-03-19T09:24:56.447Z,100679.23
2023-03-19T09:27:30.829Z,100680.45
2023-03-19T09:30:05.986Z,100679.86
2023-03-19T09:32:38.677Z,100679.79
2023-03-19T09:35:12.654Z,100678.40
2023-03-19T09:37:45.208Z,100681.05
2023-03-19T09:40:26.392Z,100681.40
2023-03-19T09:43:08.007Z,100675.55
2023-03-19T09:45:42.355Z,100672.73
2023-03-19T09:48:23.553Z,100675.95
2023-03-19T09:50:58.775Z,100671.05
2023-03-19T09:53:41.537Z,100665.67
2023-03-19T09:56:19.513Z,100670.24
2023-03-19T09:58:52.378Z,100674.77
2023-03-19T10:01:34.623Z,100673.98
2023-03-19T10:04:28.180Z,100672.59
2023-03-19T10:07:10.897Z,100662.58
2023-03-19T10:09:56.783Z,100670.30
2023-03-19T10:12:46.048Z,100662.72
2023-03-19T10:15:27.421Z,100666.65
2023-03-19T10:18:08.354Z,100668.10
2023-03-19T10:20:51.231Z,100667.45
2023-03-19T10:23:38.912Z,100669.34
2023-03-19T10:26:17.973Z,100680.17
2023-03-19T10:29:03.947Z,100680.09
2023-03-19T10:31:53.844Z,100685.45
2023-03-19T10:34:42.935Z,100684.73
2023-03-19T10:37:20.840Z,100685.70
2023-03-19T10:39:56.677Z,100684.43
2023-03-19T10:42:49.446Z,100675.61
2023-03-19T10:45:29.053Z,100677.67
2023-03-19T10:48:03.608Z,100674.61
2023-03-19T10:50:39.608Z,100671.03
2023-03-19T10:53:30.822Z,100669.86
2023-03-19T10:56:07.142Z,100663.33
2023-03-19T10:58:40.794Z,100660.90
2023-03-19T11:01:14.381Z,100659.41
2023-03-19T11:03:57.167Z,100654.11
2023-03-19T11:06:33.010Z,100654.17
2023-03-19T11:09:15.537Z,100651.16
2023-03-19T11:11:50.782Z,100649.71
2023-03-19T11:14:32.833Z,100652.32
2023-03-19T11:17:18.580Z,100650.67
2023-03-19T11:19:54.941Z,100649.31
2023-03-19T11:22:29.735Z,100647.46
2023-03-19T11:25:02.215Z,100648.41
2023-03-19T11:27:37.291Z,100649.47
2023-03-19T11:30:20.804Z,100654.89
2023-03-19T11:33:27.235Z,100643.21
2023-03-19T11:36:06.835Z,100629.86
2023-03-19T11:38:49.652Z,100637.48
2023-03-19T11:41:32.660Z,100637.52
2023-03-19T11:44:12.053Z,100632.86
2023-03-19T11:46:55.630Z,100634.59
2023-03-19T11:49:44.958Z,100629.80
2023-03-19T11:52:22.256Z,100630.01
2023-03-19T11:55:08.055Z,100638.20
2023-03-19T11:57:58.128Z,100649.98
2023-03-19T12:00:39.515Z,100649.46
2023-03-19T12:03:43.200Z,100647.17
2023-03-19T12:06:27.932Z,100650.08
2023-03-19T12:09:04.498Z,100647.30
2023-03-19T12:11:48.409Z,100647.08
2023-03-19T12:14:32.624Z,100648.98
2023-03-19T12:17:24.429Z,100648.91
2023-03-19T12:20:18.659Z,100636.20
2023-03-19T12:23:01.922Z,100646.90
2023-03-19T12:25:46.934Z,100643.39
2023-03-19T12:28:25.047Z,100640.94
2023-03-19T12:31:26.602Z,100639.64
2023-03-19T12:34:14.406Z,100636.54
2023-03-19T12:36:54.764Z,100636.06
2023-03-19T12:39:33.696Z,100635.27
2023-03-19T12:42:09.788Z,100637.08
2023-03-19T12:44:49.030Z,100638.54
2023-03-19T12:47:26.923Z,100634.70
2023-03-19T12:50:04.670Z,100625.78
2023-03-19T12:52:40.603Z,100638.72
2023-03-19T12:55:20.951Z,100634.30
2023-03-19T12:57:55.885Z,100628.45
2023-03-19T13:00:35.552Z,100627.83
2023-03-19T13:03:14.765Z,100611.89
2023-03-19T13:05:53.790Z,100624.57
2023-03-19T13:08:35.023Z,100618.77
2023-03-19T13:11:12.733Z,100620.70
2023-03-19T13:13:52.672Z,100613.98
2023-03-19T13:16:41.232Z,100603.27
2023-03-19T13:19:23.029Z,100603.04
2023-03-19T13:22:00.044Z,100603.05
2023-03-19T13:24:36.487Z,100603.06
2023-03-19T13:27:20.797Z,100602.60
2023-03-19T13:30:04.458Z,100598.20
2023-03-19T13:32:42.069Z,100593.27
2023-03-19T13:35:36.644Z,100597.42
2023-03-19T13:38:20.042Z,100589.91
2023-03-19T13:40:54.603Z,100587.35
2023-03-19T13:43:44.245Z,100593.13
2023-03-19T13:46:39.999Z,100580.29
2023-03-19T13:49:32.252Z,100591.12
2023-03-19T13:52:37.968Z,100591.77
2023-03-19T13:55:34.477Z,100589.05
2023-03-19T13:58:49.092Z,100590.09
2023-03-19T14:01:38.622Z,100583.20
2023-03-19T14:04:23.831Z,100580.02
2023-03-19T14:06:59.617Z,100564.62
2023-03-19T14:09:39.915Z,100564.07
2023-03-19T14:12:31.290Z,100568.98
2023-03-19T14:15:18.022Z,100569.14
2023-03-19T14:18:02.001Z,100570.04
2023-03-19T14:20:47.764Z,100569.73
2023-03-19T14:23:39.033Z,100573.56
2023-03-19T14:26:25.854Z,100573.81
2023-03-19T14:29:02.618Z,100573.02
2023-03-19T14:31:44.184Z,100573.34
2023-03-19T14:34:25.835Z,100576.16
2023-03-19T14:37:06.524Z,100571.77
2023-03-19T14:39:43.729Z,100578.41
2023-03-19T14:42:23.778Z,100577.54
2023-03-19T14:45:36.216Z,100576.25
2023-03-19T14:48:21.330Z,100576.66
2023-03-19T14:51:17.510Z,100579.63
2023-03-19T14:53:55.090Z,100575.79
2023-03-19T14:56:33.317Z,100566.74
2023-03-19T14:59:07.889Z,100565.79
2023-03-19T15:01:46.007Z,100569.40
2023-03-19T15:04:22.799Z,100569.88
2023-03-19T15:06:59.002Z,100569.17
2023-03-19T15:09:34.903Z,100573.80
2023-03-19T15:12:39.646Z,100572.69
2023-03-19T15:15:23.409Z,100571.08
2023-03-19T15:18:04.652Z,100572.20
2023-03-19T15:20:40.787Z,100574.59
2023-03-19T15:23:26.268Z,100572.69
2023-03-19T15:26:01.938Z,100572.83
2023-03-19T15:28:45.837Z,100570.18
2023-03-19T15:31:31.800Z,100577.23
2023-03-19T15:34:23.224Z,100571.64
2023-03-19T15:37:00.998Z,100568.52
2023-03-19T15:39:37.042Z,100568.34
2023-03-19T15:42:11.094Z,100570.73
2023-03-19T15:44:47.780Z,100575.21
2023-03-19T15:47:24.586Z,100578.33
2023-03-19T15:50:00.685Z,100572.24
2023-03-19T15:52:38.495Z,100578.33
2023-03-19T15:55:14.013Z,100575.34
2023-03-19T15:57:46.848Z,100577.66
2023-03-19T16:00:22.250Z,100581.17
2023-03-19T16:02:55.354Z,100577.73
2023-03-19T16:05:30.421Z,100574.52
2023-03-19T16:08:05.268Z,100581.25
2023-03-19T16:10:41.289Z,100576.92
2023-03-19T16:13:39.590Z,100573.41
2023-03-19T16:16:19.723Z,100573.96
2023-03-19T16:18:56.808Z,100577.88
2023-03-19T16:21:37.010Z,100580.49
2023-03-19T16:24:24.298Z,100585.91
2023-03-19T16:27:00.961Z,100589.88
2023-03-19T16:29:38.003Z,100591.20
2023-03-19T16:32:23.551Z,100593.67
2023-03-19T16:34:58.503Z,100587.82
2023-03-19T16:37:39.880Z,100593.47
2023-03-19T16:40:42.676Z,100596.38
2023-03-19T16:43:25.239Z,100593.77
2023-03-19T16:46:12.665Z,100595.56
2023-03-19T16:48:45.428Z,100593.28
2023-03-19T16:51:23.214Z,100592.84
2023-03-19T16:53:55.776Z,100596.88
2023-03-19T16:56:28.297Z,100597.82
2023-03-19T16:59:02.874Z,100602.20
2023-03-19T17:01:36.056Z,100608.45
2023-03-19T17:04:17.844Z,100604.34
2023-03-19T17:06:50.497Z,100608.22
2023-03-19T17:09:23.503Z,100607.20
2023-03-19T17:11:57.357Z,100612.30
2023-03-19T17:14:31.334Z,100615.38
2023-03-19T17:17:04.354Z,100611.98
2023-03-19T17:19:40.598Z,100615.20
2023-03-19T17:22:15.919Z,100612.92
2023-03-19T17:24:48.559Z,100609.61
2023-03-19T17:27:23.174Z,100615.19
2023-03-19T17:29:55.949Z,100619.14
2023-03-19T17:32:29.512Z,100622.11
2023-03-19T17:35:01.995Z,100620.10
2023-03-19T17:37:35.997Z,100616.62
2023-03-19T17:40:18.480Z,100617.16
2023-03-19T17:42:52.561Z,100616.48
2023-03-19T17:45:29.904Z,100614.85
2023-03-19T17:48:02.476Z,100614.88
2023-03-19T17:50:36.483Z,100615.17
2023-03-19T17:53:14.209Z,100611.61
2023-03-19T17:55:47.280Z,100617.84
2023-03-19T17:58:22.865Z,100613.52
2023-03-19T18:16:25.267Z,100606.94
2023-03-19T18:19:02.583Z,100606.50
2023-03-19T18:21:35.487Z,100604.99
2023-03-19T18:24:10.581Z,100607.69
2023-03-19T18:26:43.218Z,100615.70
2023-03-19T18:29:16.402Z,100604.57
2023-03-19T18:31:51.524Z,100618.66
2023-03-19T18:34:26.604Z,100600.23
2023-03-19T18:37:01.386Z,100614.83
2023-03-19T18:39:38.102Z,100613.23
2023-03-19T18:42:13.493Z,100609.63
2023-03-19T18:44:46.228Z,100611.73
2023-03-19T18:47:19.083Z,100601.77
2023-03-19T18:49:54.370Z,100612.98
2023-03-19T18:52:28.130Z,100611.34
2023-03-19T18:55:01.121Z,100615.55
2023-03-19T18:57:34.049Z,100616.35
2023-03-19T19:00:07.748Z,100617.70
2023-03-19T19:02:40.427Z,100593.77
2023-03-19T19:05:17.876Z,100619.88
2023-03-19T19:07:50.385Z,100621.14
2023-03-19T19:10:23.475Z,100618.77
2023-03-19T19:12:58.537Z,100614.95
2023-03-19T19:15:34.808Z,100615.39
2023-03-19T19:18:16.186Z,100616.92
2023-03-19T19:20:56.020Z,100615.27
2023-03-19T19:23:30.525Z,100616.23
2023-03-19T19:26:04.467Z,100615.16
2023-03-19T19:28:41.495Z,100611.40
2023-03-19T19:31:25.917Z,100617.30
2023-03-19T19:34:01.091Z,100619.16
2023-03-19T19:36:35.762Z,100611.88
2023-03-19T19:39:08.634Z,100626.96
2023-03-19T19:41:43.790Z,100627.65
2023-03-19T19:44:20.301Z,100630.98
2023-03-19T19:46:54.642Z,100631.14
2023-03-19T19:49:27.401Z,100630.73
2023-03-19T19:51:59.928Z,100628.90
2023-03-19T19:54:32.475Z,100631.28
2023-03-19T19:57:06.703Z,100631.73
2023-03-19T19:59:39.822Z,100633.41
2023-03-19T20:02:22.735Z,100632.98
2023-03-19T20:04:56.119Z,100635.31
2023-03-19T20:07:29.228Z,100624.14
2023-03-19T20:10:02.562Z,100638.66
2023-03-19T20:12:35.529Z,100643.86
2023-03-19T20:15:17.497Z,100645.83
2023-03-19T20:17:51.895Z,100650.02
2023-03-19T20:20:28.394Z,100648.88
2023-03-19T20:23:02.198Z,100649.86
2023-03-19T20:25:35.143Z,100650.60
2023-03-19T20:28:11.310Z,100650.84
2023-03-19T20:30:44.117Z,100648.42
2023-03-19T20:33:18.322Z,100650.98
2023-03-19T20:35:50.957Z,100640.45
2023-03-19T20:38:23.538Z,100648.00
2023-03-19T20:40:59.449Z,100644.66
2023-03-19T20:43:35.241Z,100632.05
2023-03-19T20:46:09.054Z,100645.43
2023-03-19T20:48:41.868Z,100653.42
2023-03-19T20:51:19.587Z,100650.97
2023-03-19T20:53:52.899Z,100639.86
2023-03-19T20:56:25.846Z,100649.95
2023-03-19T20:58:58.568Z,100637.36
2023-03-19T21:01:31.412Z,100654.73
2023-03-19T21:04:03.933Z,100653.87
2023-03-19T21:06:51.997Z,100653.79
2023-03-19T21:09:26.096Z,100636.96
2023-03-19T21:11:58.688Z,100640.36
2023-03-19T21:14:31.246Z,100651.00
2023-03-19T21:17:03.774Z,100648.20
2023-03-19T21:19:37.296Z,100653.20
2023-03-19T21:22:12.934Z,100650.08
2023-03-19T21:24:46.209Z,100648.17
2023-03-19T21:27:23.135Z,100649.45
2023-03-19T21:29:56.472Z,100646.80
2023-03-19T21:32:29.142Z,100647.91
2023-03-19T21:35:01.662Z,100648.52
2023-03-19T21:37:34.321Z,100640.59
2023-03-19T21:40:15.904Z,100631.79
2023-03-19T21:42:52.407Z,100644.19
2023-03-19T21:45:29.753Z,100647.35
2023-03-19T21:48:20.496Z,100647.02
2023-03-19T21:50:55.376Z,100649.25
2023-03-19T21:53:26.930Z,100648.39
2023-03-19T21:56:01.672Z,100647.39
2023-03-19T21:58:38.274Z,100649.55
2023-03-19T22:01:19.502Z,100649.07
2023-03-19T22:03:52.532Z,100645.03
2023-03-19T22:06:26.382Z,100644.04
2023-03-19T22:08:59.362Z,100637.52
2023-03-19T22:11:34.594Z,100635.52
2023-03-19T22:14:09.268Z,100631.16
2023-03-19T22:16:42.440Z,100632.08
2023-03-19T22:19:17.951Z,100634.11
2023-03-19T22:21:50.949Z,100637.10
2023-03-19T22:24:23.674Z,100639.70
2023-03-19T22:26:59.553Z,100640.53
2023-03-19T22:29:34.524Z,100628.30
2023-03-19T22:32:15.873Z,100641.64
2023-03-19T22:34:48.465Z,100622.88
2023-03-19T22:37:27.943Z,100619.78
2023-03-19T22:40:00.425Z,100633.97
2023-03-19T22:42:32.888Z,100633.04
2023-03-19T22:45:06.723Z,100628.14
2023-03-19T22:47:40.758Z,100612.96
2023-03-19T22:50:20.592Z,100627.55
2023-03-19T22:52:53.289Z,100632.77
2023-03-19T22:55:26.148Z,100632.88
2023-03-19T22:57:58.468Z,100633.55
2023-03-19T23:00:31.082Z,100628.63
2023-03-19T23:03:04.436Z,100630.21
2023-03-19T23:05:38.844Z,100631.16
2023-03-19T23:08:17.506Z,100620.45
2023-03-19T23:10:50.206Z,100630.46
2023-03-19T23:13:23.310Z,100626.11
2023-03-19T23:16:00.066Z,100625.02
2023-03-19T23:18:34.980Z,100623.09
2023-03-19T23:21:08.317Z,100624.22
2023-03-19T23:23:42.173Z,100629.95
2023-03-19T23:26:28.616Z,100625.41
2023-03-19T23:29:05.904Z,100631.71
2023-03-19T23:31:38.389Z,100626.34
2023-03-19T23:34:13.101Z,100622.52
2023-03-19T23:36:45.965Z,100612.59
2023-03-19T23:39:18.678Z,100613.52
2023-03-19T23:41:53.899Z,100601.31
2023-03-19T23:44:29.044Z,100612.90
2023-03-19T23:47:03.821Z,100614.45
2023-03-19T23:49:36.341Z,100606.39
2023-03-19T23:52:11.758Z,100616.39
2023-03-19T23:54:44.117Z,100607.70
2023-03-19T23:57:18.318Z,100611.71
2023-03-19T23:59:53.517Z,100610.38
